createdAt,value
2018-02-24T00:00:30.806Z,25.33
2018-02-24T00:02:59.352Z,29.00
2018-02-24T00:05:27.865Z,28.87
2018-02-24T00:07:56.318Z,28.00
2018-02-24T00:10:24.781Z,28.83
2018-02-24T00:12:53.317Z,28.37
2018-02-24T00:15:21.782Z,29.80
2018-02-24T00:17:50.288Z,26.53
2018-02-24T00:20:18.774Z,28.33
2018-02-24T00:22:47.269Z,29.60
2018-02-24T00:25:15.769Z,32.30
2018-02-24T00:27:44.266Z,25.17
2018-02-24T00:30:12.716Z,31.47
2018-02-24T00:32:41.185Z,29.83
2018-02-24T00:35:09.699Z,33.40
2018-02-24T00:37:38.198Z,34.57
2018-02-24T00:40:06.683Z,34.73
2018-02-24T00:42:35.222Z,30.13
2018-02-24T00:45:03.681Z,31.33
2018-02-24T00:47:32.146Z,31.63
2018-02-24T00:50:00.663Z,32.90
2018-02-24T00:52:29.118Z,33.60
2018-02-24T00:54:57.654Z,31.50
2018-02-24T00:57:26.135Z,30.20
2018-02-24T00:59:54.626Z,30.20
2018-02-24T01:02:23.158Z,31.37
2018-02-24T01:04:51.704Z,31.33
2018-02-24T01:07:20.189Z,31.27
2018-02-24T01:09:48.730Z,33.03
2018-02-24T01:12:17.189Z,30.97
2018-02-24T01:14:45.717Z,31.90
2018-02-24T01:17:14.213Z,29.00
2018-02-24T01:19:42.742Z,32.70
2018-02-24T01:22:11.201Z,29.90
2018-02-24T01:24:39.706Z,27.03
2018-02-24T01:27:08.174Z,33.37
2018-02-24T01:29:36.646Z,29.23
2018-02-24T01:32:05.197Z,30.80
2018-02-24T01:34:33.717Z,32.20
2018-02-24T01:37:02.210Z,35.90
2018-02-24T01:39:30.703Z,32.70
2018-02-24T01:41:59.162Z,34.00
2018-02-24T01:44:27.688Z,32.83
2018-02-24T01:46:56.190Z,39.90
2018-02-24T01:49:24.675Z,39.00
2018-02-24T01:51:53.166Z,34.50
2018-02-24T01:54:21.643Z,33.90
2018-02-24T01:56:50.137Z,35.70
2018-02-24T01:59:18.585Z,33.03
2018-02-24T02:01:47.074Z,33.83
2018-02-24T02:04:15.555Z,29.40
2018-02-24T02:06:44.098Z,33.03
2018-02-24T02:09:12.574Z,36.17
2018-02-24T02:11:41.070Z,35.63
2018-02-24T02:14:09.562Z,33.27
2018-02-24T02:16:38.032Z,35.27
2018-02-24T02:19:06.500Z,36.27
2018-02-24T02:21:35.080Z,31.47
2018-02-24T02:24:03.598Z,33.33
2018-02-24T02:26:32.057Z,32.20
2018-02-24T02:29:00.550Z,29.20
2018-02-24T02:31:29.014Z,34.03
2018-02-24T02:33:57.538Z,31.67
2018-02-24T02:36:26.060Z,26.93
2018-02-24T02:38:54.558Z,27.47
2018-02-24T02:41:23.075Z,28.80
2018-02-24T02:43:51.570Z,30.63
2018-02-24T02:46:20.065Z,30.27
2018-02-24T02:48:48.526Z,32.73
2018-02-24T02:51:17.032Z,31.77
2018-02-24T02:53:45.507Z,31.33
2018-02-24T02:56:13.998Z,28.40
2018-02-24T02:58:42.505Z,27.90
2018-02-24T03:01:10.953Z,27.77
2018-02-24T03:03:39.458Z,35.20
2018-02-24T03:06:07.985Z,31.17
2018-02-24T03:08:36.442Z,30.23
2018-02-24T03:11:04.979Z,28.20
2018-02-24T03:13:33.483Z,28.40
2018-02-24T03:16:01.991Z,31.77
2018-02-24T03:18:30.465Z,29.07
2018-02-24T03:20:58.917Z,33.23
2018-02-24T03:23:27.405Z,36.07
2018-02-24T03:25:55.905Z,35.53
2018-02-24T03:28:24.394Z,32.40
2018-02-24T03:30:52.903Z,29.17
2018-02-24T03:33:21.421Z,31.00
2018-02-24T03:35:49.882Z,29.17
2018-02-24T03:38:18.382Z,31.27
2018-02-24T03:40:46.905Z,31.40
2018-02-24T03:43:15.357Z,37.13
2018-02-24T03:45:53.796Z,35.37
2018-02-24T03:48:22.258Z,36.30
2018-02-24T03:50:50.737Z,36.43
2018-02-24T03:53:19.200Z,39.53
2018-02-24T03:55:47.689Z,30.43
2018-02-24T03:58:16.187Z,34.83
2018-02-24T04:00:44.674Z,33.57
2018-02-24T04:03:13.228Z,35.60
2018-02-24T04:05:41.706Z,36.50
2018-02-24T04:08:10.157Z,38.17
2018-02-24T04:10:38.702Z,34.50
2018-02-24T04:13:07.216Z,35.10
2018-02-24T04:15:35.721Z,32.13
2018-02-24T04:18:04.268Z,37.13
2018-02-24T04:20:32.725Z,32.57
2018-02-24T04:23:01.214Z,33.67
2018-02-24T04:25:29.670Z,40.47
2018-02-24T04:27:58.164Z,35.17
2018-02-24T04:30:26.626Z,41.73
2018-02-24T04:32:55.122Z,35.23
2018-02-24T04:35:23.644Z,43.40
2018-02-24T04:37:52.102Z,39.23
2018-02-24T04:40:20.617Z,40.40
2018-02-24T04:42:49.114Z,36.30
2018-02-24T04:45:17.610Z,38.60
2018-02-24T04:47:46.100Z,40.60
2018-02-24T04:50:14.617Z,49.27
2018-02-24T04:52:43.115Z,52.07
2018-02-24T04:55:11.571Z,48.33
2018-02-24T04:57:40.065Z,41.63
2018-02-24T05:00:08.614Z,44.43
2018-02-24T05:02:37.153Z,44.77
2018-02-24T05:05:05.644Z,44.20
2018-02-24T05:07:34.154Z,40.63
2018-02-24T05:10:02.634Z,45.33
2018-02-24T05:12:31.108Z,43.93
2018-02-24T05:14:59.601Z,39.97
2018-02-24T05:17:28.111Z,47.13
2018-02-24T05:19:56.602Z,42.57
2018-02-24T05:22:25.106Z,45.00
2018-02-24T05:24:53.575Z,52.73
2018-02-24T05:27:22.103Z,49.87
2018-02-24T05:29:50.598Z,52.73
2018-02-24T05:32:19.069Z,52.03
2018-02-24T05:34:47.570Z,54.67
2018-02-24T05:37:16.080Z,48.67
2018-02-24T05:39:44.557Z,55.13
2018-02-24T05:42:13.045Z,57.23
2018-02-24T05:44:41.578Z,58.03
2018-02-24T05:47:10.050Z,57.30
2018-02-24T05:49:38.576Z,53.67
2018-02-24T05:52:07.101Z,62.60
2018-02-24T05:54:35.560Z,56.57
2018-02-24T05:57:04.070Z,62.23
2018-02-24T05:59:32.594Z,68.97
2018-02-24T06:02:01.087Z,66.13
2018-02-24T06:04:29.597Z,57.13
2018-02-24T06:06:58.079Z,86.50
2018-02-24T06:09:26.583Z,122.37
2018-02-24T06:11:55.078Z,121.43
2018-02-24T06:14:23.577Z,115.90
2018-02-24T06:16:52.041Z,66.60
2018-02-24T06:19:20.574Z,59.40
2018-02-24T06:21:49.046Z,56.83
2018-02-24T06:24:17.501Z,56.03
2018-02-24T06:26:46.027Z,57.83
2018-02-24T06:29:14.481Z,57.60
2018-02-24T06:31:42.939Z,54.77
2018-02-24T06:34:11.460Z,59.90
2018-02-24T06:36:39.982Z,58.67
2018-02-24T06:39:08.507Z,54.37
2018-02-24T06:41:37.011Z,56.93
2018-02-24T06:44:05.505Z,54.87
2018-02-24T06:46:33.966Z,56.40
2018-02-24T06:49:02.458Z,54.53
2018-02-24T06:51:30.990Z,56.87
2018-02-24T06:53:59.446Z,58.13
2018-02-24T06:56:27.953Z,60.73
2018-02-24T06:58:56.447Z,70.00
2018-02-24T07:01:24.952Z,56.60
2018-02-24T07:03:53.414Z,85.80
2018-02-24T07:06:21.914Z,63.30
2018-02-24T07:08:50.436Z,55.77
2018-02-24T07:11:18.918Z,61.47
2018-02-24T07:13:47.450Z,54.37
2018-02-24T07:16:15.914Z,55.17
2018-02-24T07:18:44.445Z,64.97
2018-02-24T07:21:12.913Z,67.03
2018-02-24T07:23:41.419Z,64.27
2018-02-24T07:26:09.894Z,56.10
2018-02-24T07:28:38.390Z,58.37
2018-02-24T07:31:06.882Z,50.37
2018-02-24T07:33:35.370Z,48.83
2018-02-24T07:36:03.862Z,54.93
2018-02-24T07:38:32.342Z,49.00
2018-02-24T07:41:00.842Z,47.47
2018-02-24T07:43:29.342Z,45.17
2018-02-24T07:45:57.802Z,48.07
2018-02-24T07:48:26.310Z,51.43
2018-02-24T07:50:54.766Z,52.47
2018-02-24T07:53:23.266Z,44.47
2018-02-24T07:55:51.722Z,87.40
2018-02-24T07:58:20.178Z,79.93
2018-02-24T08:00:48.673Z,61.97
2018-02-24T08:03:17.130Z,64.57
2018-02-24T08:05:45.635Z,185.83
2018-02-24T08:08:14.098Z,80.37
2018-02-24T08:10:42.599Z,89.77
2018-02-24T08:13:11.087Z,56.60
2018-02-24T08:15:39.544Z,59.43
2018-02-24T08:18:08.057Z,94.93
2018-02-24T08:20:36.528Z,80.43
2018-02-24T08:23:05.023Z,59.60
2018-02-24T08:25:33.494Z,47.17
2018-02-24T08:28:02.013Z,45.77
2018-02-24T08:30:30.518Z,44.80
2018-02-24T08:32:58.990Z,84.70
2018-02-24T08:35:27.446Z,77.53
2018-02-24T08:37:55.951Z,45.33
2018-02-24T08:40:24.511Z,74.17
2018-02-24T08:42:52.973Z,66.93
2018-02-24T08:45:21.466Z,75.47
2018-02-24T08:47:49.974Z,48.30
2018-02-24T08:50:18.450Z,33.70
2018-02-24T08:52:46.943Z,38.87
2018-02-24T08:55:15.445Z,36.93
2018-02-24T08:57:43.968Z,38.37
2018-02-24T09:00:12.430Z,36.17
2018-02-24T09:02:40.933Z,33.87
2018-02-24T09:05:09.404Z,38.03
2018-02-24T09:07:37.916Z,42.80
2018-02-24T09:10:06.425Z,40.87
2018-02-24T09:12:34.892Z,43.23
2018-02-24T09:15:03.403Z,49.63
2018-02-24T09:17:31.908Z,39.27
2018-02-24T09:20:00.369Z,39.80
2018-02-24T09:22:28.872Z,41.60
2018-02-24T09:24:57.336Z,41.53
2018-02-24T09:27:25.840Z,68.97
2018-02-24T09:29:54.298Z,53.87
2018-02-24T09:32:22.786Z,50.90
2018-02-24T09:34:51.287Z,51.20
2018-02-24T09:37:19.754Z,41.13
2018-02-24T09:39:48.249Z,42.97
2018-02-24T09:42:16.710Z,34.83
2018-02-24T09:44:45.183Z,48.37
2018-02-24T09:47:13.647Z,48.43
2018-02-24T09:49:42.137Z,71.60
2018-02-24T09:52:10.646Z,49.60
2018-02-24T09:54:39.109Z,38.50
2018-02-24T09:57:07.566Z,44.53
2018-02-24T09:59:36.058Z,38.47
2018-02-24T10:02:04.523Z,43.97
2018-02-24T10:04:33.034Z,34.27
2018-02-24T10:07:01.535Z,34.73
2018-02-24T10:09:30.023Z,45.20
2018-02-24T10:11:58.758Z,36.30
2018-02-24T10:14:27.253Z,28.50
2018-02-24T10:16:55.746Z,29.77
2018-02-24T10:19:24.212Z,36.90
2018-02-24T10:21:52.710Z,35.60
2018-02-24T10:24:21.166Z,49.90
2018-02-24T10:26:49.665Z,39.57
2018-02-24T10:29:18.136Z,33.97
2018-02-24T10:31:46.637Z,32.10
2018-02-24T10:34:15.122Z,32.80
2018-02-24T10:36:43.621Z,32.87
2018-02-24T10:39:12.109Z,34.37
2018-02-24T10:41:40.566Z,32.30
2018-02-24T10:44:09.062Z,30.60
2018-02-24T10:46:37.527Z,30.17
2018-02-24T10:49:15.660Z,30.00
2018-02-24T10:51:44.114Z,28.00
2018-02-24T10:54:12.620Z,25.70
2018-02-24T10:56:41.086Z,25.87
2018-02-24T10:59:09.582Z,21.23
2018-02-24T11:01:38.043Z,27.10
2018-02-24T11:04:06.567Z,36.03
2018-02-24T11:06:35.011Z,31.10
2018-02-24T11:09:03.536Z,39.87
2018-02-24T11:11:32.000Z,29.23
2018-02-24T11:14:00.497Z,38.53
2018-02-24T11:16:28.943Z,24.63
2018-02-24T11:18:57.430Z,26.33
2018-02-24T11:21:25.956Z,27.00
2018-02-24T11:23:54.427Z,26.83
2018-02-24T11:26:22.928Z,27.83
2018-02-24T11:28:51.422Z,26.63
2018-02-24T11:31:19.905Z,26.30
2018-02-24T11:33:48.359Z,29.77
2018-02-24T11:36:16.862Z,26.37
2018-02-24T11:38:45.321Z,25.07
2018-02-24T11:41:13.809Z,26.20
2018-02-24T11:43:42.334Z,25.67
2018-02-24T11:46:10.830Z,29.23
2018-02-24T11:48:39.321Z,27.17
2018-02-24T11:51:07.778Z,27.30
2018-02-24T11:53:36.305Z,31.83
2018-02-24T11:56:04.762Z,27.00
2018-02-24T11:58:33.245Z,29.70
2018-02-24T12:01:01.762Z,28.50
2018-02-24T12:03:30.246Z,24.60
2018-02-24T12:05:58.714Z,23.07
2018-02-24T12:08:27.206Z,23.27
2018-02-24T12:10:55.658Z,25.67
2018-02-24T12:13:24.222Z,26.10
2018-02-24T12:15:52.682Z,24.53
2018-02-24T12:18:21.178Z,24.00
2018-02-24T12:20:49.644Z,28.13
2018-02-24T12:23:18.125Z,29.30
2018-02-24T12:25:46.592Z,27.93
2018-02-24T12:28:15.126Z,23.10
2018-02-24T12:30:43.590Z,22.60
2018-02-24T12:33:12.089Z,22.23
2018-02-24T12:35:40.550Z,24.70
2018-02-24T12:38:09.057Z,21.80
2018-02-24T12:40:37.554Z,22.37
2018-02-24T12:43:06.054Z,22.63
2018-02-24T12:45:34.550Z,18.47
2018-02-24T12:48:03.051Z,21.13
2018-02-24T12:50:31.513Z,20.10
2018-02-24T12:53:00.025Z,19.60
2018-02-24T12:55:28.498Z,21.13
2018-02-24T12:57:56.959Z,21.43
2018-02-24T13:00:25.474Z,21.70
2018-02-24T13:02:53.973Z,19.27
2018-02-24T13:05:22.484Z,21.07
2018-02-24T13:07:50.942Z,23.50
2018-02-24T13:10:19.443Z,19.17
2018-02-24T13:12:47.902Z,19.80
2018-02-24T13:15:16.398Z,16.27
2018-02-24T13:17:44.890Z,15.50
2018-02-24T13:20:13.346Z,13.00
2018-02-24T13:22:41.839Z,14.17
2018-02-24T13:25:10.298Z,17.50
2018-02-24T13:27:38.795Z,14.03
2018-02-24T13:30:07.264Z,22.93
2018-02-24T13:32:35.758Z,17.83
2018-02-24T13:35:04.217Z,19.67
2018-02-24T13:37:32.741Z,22.50
2018-02-24T13:40:01.213Z,20.63
2018-02-24T13:42:29.719Z,21.00
2018-02-24T13:44:58.185Z,17.67
2018-02-24T13:47:26.706Z,17.03
2018-02-24T13:49:55.198Z,16.07
2018-02-24T13:52:23.692Z,19.47
2018-02-24T13:54:52.153Z,17.00
2018-02-24T13:57:20.660Z,23.87
2018-02-24T13:59:49.146Z,24.83
2018-02-24T14:02:17.606Z,21.53
2018-02-24T14:04:46.101Z,25.80
2018-02-24T14:07:14.557Z,19.30
2018-02-24T14:09:43.066Z,25.33
2018-02-24T14:12:11.566Z,22.53
2018-02-24T14:14:40.037Z,22.07
2018-02-24T14:17:08.559Z,23.23
2018-02-24T14:19:37.037Z,21.80
2018-02-24T14:22:05.490Z,21.87
2018-02-24T14:24:34.004Z,23.97
2018-02-24T14:27:02.506Z,23.27
2018-02-24T14:29:30.958Z,21.43
2018-02-24T14:31:59.415Z,27.53
2018-02-24T14:34:27.910Z,21.57
2018-02-24T14:36:56.410Z,21.17
2018-02-24T14:39:24.922Z,21.83
2018-02-24T14:41:53.375Z,26.60
2018-02-24T14:44:21.854Z,24.10
2018-02-24T14:46:50.343Z,24.03
2018-02-24T14:49:18.801Z,27.37
2018-02-24T14:51:47.289Z,28.50
2018-02-24T14:54:15.746Z,30.50
2018-02-24T14:56:44.257Z,27.40
2018-02-24T14:59:12.713Z,30.77
2018-02-24T15:01:41.166Z,35.23
2018-02-24T15:04:09.654Z,29.50
2018-02-24T15:06:38.182Z,32.97
2018-02-24T15:09:06.675Z,28.30
2018-02-24T15:11:35.292Z,45.63
2018-02-24T15:14:03.786Z,44.33
2018-02-24T15:16:32.289Z,32.87
2018-02-24T15:19:00.746Z,27.90
2018-02-24T15:21:29.261Z,28.37
2018-02-24T15:23:57.714Z,25.70
2018-02-24T15:26:26.215Z,23.67
2018-02-24T15:28:54.734Z,26.80
2018-02-24T15:31:23.198Z,29.47
2018-02-24T15:33:51.698Z,23.40
2018-02-24T15:36:20.230Z,26.73
2018-02-24T15:38:48.706Z,27.33
2018-02-24T15:41:17.206Z,24.57
2018-02-24T15:43:45.647Z,26.67
2018-02-24T15:46:14.122Z,24.10
2018-02-24T15:48:42.656Z,26.73
2018-02-24T15:51:11.110Z,26.13
2018-02-24T15:53:39.610Z,22.33
2018-02-24T15:56:08.098Z,23.13
2018-02-24T15:58:36.594Z,23.43
2018-02-24T16:01:05.088Z,21.47
2018-02-24T16:03:33.577Z,20.33
2018-02-24T16:06:02.069Z,23.10
2018-02-24T16:08:30.584Z,25.67
2018-02-24T16:10:59.086Z,28.00
2018-02-24T16:13:27.571Z,22.07
2018-02-24T16:15:56.075Z,21.17
2018-02-24T16:18:24.542Z,25.10
2018-02-24T16:20:53.052Z,23.63
2018-02-24T16:23:21.510Z,26.17
2018-02-24T16:25:49.970Z,24.40
2018-02-24T16:28:18.467Z,23.17
2018-02-24T16:30:46.951Z,29.40
2018-02-24T16:33:15.443Z,25.40
2018-02-24T16:35:43.902Z,26.27
2018-02-24T16:38:12.394Z,26.93
2018-02-24T16:40:40.891Z,22.80
2018-02-24T16:43:09.354Z,25.77
2018-02-24T16:45:37.868Z,25.37
2018-02-24T16:48:06.321Z,22.93
2018-02-24T16:50:35.409Z,22.30
2018-02-24T16:53:03.975Z,24.20
2018-02-24T16:55:32.417Z,25.77
2018-02-24T16:58:00.871Z,26.23
2018-02-24T17:00:29.420Z,20.67
2018-02-24T17:02:57.941Z,21.27
2018-02-24T17:05:26.410Z,19.93
2018-02-24T17:07:54.915Z,18.10
2018-02-24T17:10:23.391Z,18.17
2018-02-24T17:12:51.887Z,17.53
2018-02-24T17:15:20.348Z,19.60
2018-02-24T17:17:48.842Z,16.30
2018-02-24T17:20:17.313Z,19.43
2018-02-24T17:22:45.851Z,19.23
2018-02-24T17:25:14.346Z,19.40
2018-02-24T17:27:42.866Z,21.37
2018-02-24T17:30:11.326Z,21.97
2018-02-24T17:32:39.855Z,23.87
2018-02-24T17:35:08.345Z,20.47
2018-02-24T17:37:36.822Z,21.30
2018-02-24T17:40:05.331Z,21.53
2018-02-24T17:42:33.850Z,20.80
2018-02-24T17:45:02.321Z,21.80
2018-02-24T17:47:30.830Z,24.40
2018-02-24T17:49:59.306Z,21.27
2018-02-24T17:52:27.758Z,19.30
2018-02-24T17:54:56.278Z,19.30
2018-02-24T17:57:24.757Z,17.23
2018-02-24T17:59:53.214Z,17.33
2018-02-24T18:02:21.706Z,18.07
2018-02-24T18:04:50.211Z,19.80
2018-02-24T18:07:18.731Z,19.70
2018-02-24T18:09:47.191Z,20.97
2018-02-24T18:12:15.693Z,20.00
2018-02-24T18:14:44.180Z,20.57
2018-02-24T18:17:12.678Z,21.20
2018-02-24T18:19:41.188Z,20.23
2018-02-24T18:22:09.688Z,22.53
2018-02-24T18:24:38.150Z,21.40
2018-02-24T18:27:06.655Z,22.57
2018-02-24T18:29:35.146Z,30.87
2018-02-24T18:32:03.601Z,54.17
2018-02-24T18:34:32.095Z,36.63
2018-02-24T18:37:00.582Z,34.40
2018-02-24T18:39:29.073Z,36.60
2018-02-24T18:41:57.531Z,31.67
2018-02-24T18:44:26.083Z,48.13
2018-02-24T18:46:54.595Z,48.43
2018-02-24T18:49:23.068Z,31.00
2018-02-24T18:51:51.562Z,26.07
2018-02-24T18:54:20.058Z,25.50
2018-02-24T18:56:48.517Z,23.17
2018-02-24T18:59:16.970Z,24.13
2018-02-24T19:01:45.467Z,24.70
2018-02-24T19:04:13.986Z,23.27
2018-02-24T19:06:42.518Z,25.07
2018-02-24T19:09:10.974Z,23.40
2018-02-24T19:11:39.472Z,21.87
2018-02-24T19:14:07.953Z,23.43
2018-02-24T19:16:36.450Z,24.27
2018-02-24T19:19:04.941Z,22.00
2018-02-24T19:21:33.398Z,24.07
2018-02-24T19:24:01.898Z,21.37
2018-02-24T19:26:30.350Z,21.93
2018-02-24T19:28:58.814Z,22.87
2018-02-24T19:31:27.334Z,21.77
2018-02-24T19:33:55.826Z,21.47
2018-02-24T19:36:24.282Z,19.33
2018-02-24T19:38:52.783Z,20.47
2018-02-24T19:41:21.279Z,20.40
2018-02-24T19:43:49.746Z,19.57
2018-02-24T19:46:18.220Z,20.37
2018-02-24T19:48:46.714Z,19.17
2018-02-24T19:51:15.174Z,17.30
2018-02-24T19:53:43.666Z,16.47
2018-02-24T19:56:12.131Z,16.83
2018-02-24T19:58:40.636Z,18.30
2018-02-24T20:01:09.098Z,17.57
2018-02-24T20:03:37.585Z,15.67
2018-02-24T20:06:06.077Z,16.30
2018-02-24T20:08:34.584Z,16.93
2018-02-24T20:11:03.042Z,15.90
2018-02-24T20:13:31.534Z,21.77
2018-02-24T20:15:59.994Z,18.97
2018-02-24T20:18:28.480Z,18.47
2018-02-24T20:20:56.938Z,17.93
2018-02-24T20:23:25.432Z,17.40
2018-02-24T20:25:53.955Z,18.07
2018-02-24T20:28:22.419Z,15.83
2018-02-24T20:30:50.910Z,18.53
2018-02-24T20:33:19.376Z,17.20
2018-02-24T20:35:47.867Z,16.60
2018-02-24T20:38:16.334Z,15.17
2018-02-24T20:40:44.840Z,19.50
2018-02-24T20:43:13.306Z,18.83
2018-02-24T20:45:41.785Z,18.53
2018-02-24T20:48:10.314Z,18.47
2018-02-24T20:50:38.774Z,16.80
2018-02-24T20:53:07.270Z,16.70
2018-02-24T20:55:35.767Z,18.57
2018-02-24T20:58:05.018Z,18.57
2018-02-24T21:00:33.875Z,20.50
2018-02-24T21:03:02.369Z,19.30
2018-02-24T21:05:30.822Z,19.10
2018-02-24T21:07:59.299Z,18.37
2018-02-24T21:10:28.714Z,19.27
2018-02-24T21:12:57.166Z,19.83
2018-02-24T21:15:25.658Z,21.30
2018-02-24T21:17:54.158Z,22.40
2018-02-24T21:20:22.612Z,23.07
2018-02-24T21:22:51.121Z,20.83
2018-02-24T21:25:19.586Z,21.50
2018-02-24T21:27:48.054Z,22.10
2018-02-24T21:30:16.661Z,24.30
2018-02-24T21:32:45.122Z,17.43
2018-02-24T21:35:13.616Z,26.63
2018-02-24T21:37:42.128Z,38.77
2018-02-24T21:40:10.586Z,61.90
2018-02-24T21:42:39.080Z,32.60
2018-02-24T21:45:07.537Z,23.70
2018-02-24T21:47:36.040Z,26.27
2018-02-24T21:50:04.483Z,23.50
2018-02-24T21:52:32.970Z,24.80
2018-02-24T21:55:01.429Z,24.57
2018-02-24T21:57:29.958Z,25.03
2018-02-24T21:59:58.421Z,24.13
2018-02-24T22:02:26.914Z,20.53
2018-02-24T22:04:55.427Z,19.57
2018-02-24T22:07:24.543Z,19.97
2018-02-24T22:09:52.993Z,19.27
2018-02-24T22:12:21.481Z,20.03
2018-02-24T22:14:49.949Z,22.47
2018-02-24T22:17:18.442Z,21.00
2018-02-24T22:19:46.965Z,22.00
2018-02-24T22:22:15.468Z,21.83
2018-02-24T22:24:43.957Z,20.90
2018-02-24T22:27:12.450Z,25.87
2018-02-24T22:29:40.947Z,26.37
2018-02-24T22:32:09.439Z,26.33
2018-02-24T22:34:37.911Z,26.73
2018-02-24T22:37:06.402Z,25.07
2018-02-24T22:39:34.885Z,22.97
2018-02-24T22:42:03.438Z,28.30
2018-02-24T22:44:31.950Z,25.23
2018-02-24T22:47:00.412Z,28.43
2018-02-24T22:49:28.884Z,25.87
2018-02-24T22:51:57.378Z,27.03
2018-02-24T22:54:25.867Z,22.57
2018-02-24T22:56:54.324Z,23.63
2018-02-24T22:59:22.823Z,20.23
2018-02-24T23:01:51.314Z,23.90
2018-02-24T23:04:19.761Z,30.27
2018-02-24T23:06:48.222Z,20.47
2018-02-24T23:09:16.722Z,21.27
2018-02-24T23:11:45.190Z,23.30
2018-02-24T23:14:13.714Z,20.10
2018-02-24T23:16:42.166Z,20.97
2018-02-24T23:19:10.638Z,22.60
2018-02-24T23:21:39.098Z,21.50
2018-02-24T23:24:07.602Z,19.27
2018-02-24T23:26:36.066Z,17.67
2018-02-24T23:29:05.410Z,14.57
2018-02-24T23:31:33.958Z,15.97
2018-02-24T23:34:02.457Z,15.53
2018-02-24T23:36:30.953Z,15.53
2018-02-24T23:38:59.451Z,16.17
2018-02-24T23:41:27.915Z,14.10
2018-02-24T23:43:56.432Z,14.70
2018-02-24T23:46:24.897Z,16.27
2018-02-24T23:48:53.352Z,15.07
2018-02-24T23:51:21.886Z,13.83
2018-02-24T23:53:50.357Z,15.20
2018-02-24T23:56:18.857Z,14.67
2018-02-24T23:58:47.352Z,14.90
